createdAt,value
2019-05-22T00:00:50.229Z,13.62
2019-05-22T00:03:21.010Z,13.62
2019-05-22T00:05:49.503Z,13.58
2019-05-22T00:08:16.603Z,13.53
2019-05-22T00:10:45.746Z,13.46
2019-05-22T00:13:17.417Z,13.40
2019-05-22T00:15:45.880Z,13.38
2019-05-22T00:18:12.920Z,13.39
2019-05-22T00:20:41.476Z,13.43
2019-05-22T00:23:08.897Z,13.45
2019-05-22T00:25:37.145Z,13.41
2019-05-22T00:28:03.929Z,13.51
2019-05-22T00:30:32.895Z,13.51
2019-05-22T00:33:00.219Z,13.50
2019-05-22T00:35:28.568Z,13.44
2019-05-22T00:37:56.453Z,13.43
2019-05-22T00:40:25.076Z,13.45
2019-05-22T00:43:03.358Z,13.43
2019-05-22T00:45:22.223Z,13.44
2019-05-22T00:47:50.446Z,13.44
2019-05-22T00:50:21.869Z,13.41
2019-05-22T00:52:56.235Z,13.45
2019-05-22T00:55:33.884Z,13.40
2019-05-22T00:58:08.225Z,13.32
2019-05-22T01:00:44.889Z,13.36
2019-05-22T01:03:18.286Z,13.34
2019-05-22T01:05:48.216Z,13.38
2019-05-22T01:08:17.977Z,13.39
2019-05-22T01:10:47.082Z,13.47
2019-05-22T01:13:14.445Z,13.51
2019-05-22T01:15:41.284Z,13.49
2019-05-22T01:18:10.170Z,13.49
2019-05-22T01:20:37.612Z,13.47
2019-05-22T01:23:06.372Z,13.49
2019-05-22T01:25:33.698Z,13.50
2019-05-22T01:28:01.304Z,13.39
2019-05-22T01:30:37.932Z,13.29
2019-05-22T01:33:09.349Z,13.35
2019-05-22T01:35:36.218Z,13.39
2019-05-22T01:38:05.606Z,13.41
2019-05-22T01:40:42.038Z,13.41
2019-05-22T01:43:09.149Z,13.35
2019-05-22T01:45:37.937Z,13.37
2019-05-22T01:48:10.869Z,13.37
2019-05-22T01:50:51.046Z,13.35
2019-05-22T01:53:20.059Z,13.31
2019-05-22T01:55:47.943Z,13.27
2019-05-22T01:58:15.268Z,13.21
2019-05-22T02:00:43.592Z,13.20
2019-05-22T02:03:10.845Z,13.24
2019-05-22T02:05:38.062Z,13.30
2019-05-22T02:08:05.280Z,13.33
2019-05-22T02:10:34.166Z,13.39
2019-05-22T02:13:02.799Z,13.39
2019-05-22T02:15:30.430Z,13.30
2019-05-22T02:17:57.370Z,13.25
2019-05-22T02:20:24.391Z,13.19
2019-05-22T02:22:51.128Z,13.00
2019-05-22T02:25:18.320Z,13.00
2019-05-22T02:27:46.137Z,13.02
2019-05-22T02:30:13.755Z,13.04
2019-05-22T02:32:41.382Z,13.08
2019-05-22T02:35:09.727Z,13.08
2019-05-22T02:37:37.465Z,13.09
2019-05-22T02:40:06.165Z,13.10
2019-05-22T02:42:33.759Z,13.05
2019-05-22T02:45:01.011Z,13.04
2019-05-22T02:47:30.084Z,12.99
2019-05-22T02:49:57.565Z,12.97
2019-05-22T02:52:25.575Z,12.97
2019-05-22T02:54:52.359Z,13.00
2019-05-22T02:57:23.669Z,12.99
2019-05-22T02:59:50.450Z,12.86
2019-05-22T03:02:17.400Z,12.78
2019-05-22T03:04:53.179Z,12.83
2019-05-22T03:07:20.931Z,12.86
2019-05-22T03:09:50.027Z,12.81
2019-05-22T03:12:18.648Z,12.80
2019-05-22T03:14:45.570Z,12.80
2019-05-22T03:17:32.901Z,12.76
2019-05-22T03:20:03.742Z,12.80
2019-05-22T03:22:39.191Z,12.74
2019-05-22T03:25:10.695Z,12.62
2019-05-22T03:27:45.158Z,12.53
2019-05-22T03:30:20.727Z,12.45
2019-05-22T03:32:47.436Z,12.42
2019-05-22T03:35:14.881Z,12.40
2019-05-22T03:37:42.316Z,12.52
2019-05-22T03:40:09.573Z,12.48
2019-05-22T03:42:36.362Z,12.43
2019-05-22T03:45:05.017Z,12.39
2019-05-22T03:47:32.689Z,12.52
2019-05-22T03:50:04.241Z,12.63
2019-05-22T03:52:31.361Z,12.71
2019-05-22T03:55:00.001Z,12.78
2019-05-22T03:57:27.134Z,12.81
2019-05-22T03:59:54.508Z,12.78
2019-05-22T04:02:22.024Z,12.75
2019-05-22T04:04:49.187Z,12.74
2019-05-22T04:07:20.893Z,12.61
2019-05-22T04:09:50.841Z,12.50
2019-05-22T04:12:18.145Z,12.59
2019-05-22T04:14:45.936Z,12.63
2019-05-22T04:17:17.296Z,12.65
2019-05-22T04:19:50.996Z,12.71
2019-05-22T04:22:16.998Z,12.76
2019-05-22T04:24:43.731Z,12.62
2019-05-22T04:27:11.173Z,12.62
2019-05-22T04:29:38.003Z,12.57
2019-05-22T04:32:17.940Z,12.55
2019-05-22T04:34:50.279Z,12.56
2019-05-22T04:37:18.913Z,12.54
2019-05-22T04:39:47.910Z,12.48
2019-05-22T04:42:15.252Z,12.44
2019-05-22T04:45:03.611Z,12.37
2019-05-22T04:47:30.936Z,12.36
2019-05-22T04:50:07.315Z,12.42
2019-05-22T04:52:26.683Z,12.38
2019-05-22T04:54:53.424Z,12.39
2019-05-22T04:57:20.473Z,12.35
2019-05-22T04:59:47.289Z,12.30
2019-05-22T05:02:14.728Z,12.40
2019-05-22T05:04:41.468Z,12.41
2019-05-22T05:07:08.172Z,12.31
2019-05-22T05:09:35.310Z,12.18
2019-05-22T05:12:02.442Z,12.11
2019-05-22T05:14:31.014Z,12.33
2019-05-22T05:16:57.727Z,12.37
2019-05-22T05:19:24.527Z,12.32
2019-05-22T05:21:51.249Z,12.24
2019-05-22T05:24:20.272Z,12.17
2019-05-22T05:26:47.118Z,12.24
2019-05-22T05:29:27.793Z,12.29
2019-05-22T05:31:56.278Z,12.20
2019-05-22T05:34:47.046Z,12.23
2019-05-22T05:37:17.674Z,12.26
2019-05-22T05:40:28.371Z,12.38
2019-05-22T05:42:55.263Z,12.48
2019-05-22T05:45:22.545Z,12.62
2019-05-22T05:47:49.809Z,12.63
2019-05-22T05:50:17.476Z,12.64
2019-05-22T05:52:44.454Z,12.69
2019-05-22T05:55:12.363Z,12.74
2019-05-22T05:58:27.941Z,12.73
2019-05-22T06:00:57.239Z,12.74
2019-05-22T06:03:35.165Z,12.74
2019-05-22T06:06:07.781Z,12.76
2019-05-22T06:08:36.402Z,12.77
2019-05-22T06:11:40.569Z,12.83
2019-05-22T06:14:09.260Z,12.85
2019-05-22T06:17:16.205Z,12.69
2019-05-22T06:19:45.599Z,12.69
2019-05-22T06:22:13.499Z,12.77
2019-05-22T06:24:59.324Z,12.68
2019-05-22T06:27:49.046Z,12.79
2019-05-22T06:30:18.720Z,12.89
2019-05-22T06:33:29.573Z,12.84
2019-05-22T06:35:58.241Z,12.89
2019-05-22T06:39:02.328Z,12.90
2019-05-22T06:41:32.351Z,12.90
2019-05-22T06:44:26.473Z,12.86
2019-05-22T06:46:53.315Z,12.89
2019-05-22T06:49:37.988Z,12.93
2019-05-22T06:52:05.143Z,12.91
2019-05-22T06:54:32.484Z,12.90
2019-05-22T06:57:02.281Z,12.96
2019-05-22T06:59:29.045Z,13.01
2019-05-22T07:02:01.424Z,13.05
2019-05-22T07:04:28.570Z,13.13
2019-05-22T07:06:55.533Z,13.21
2019-05-22T07:09:23.673Z,13.27
2019-05-22T07:11:50.848Z,13.34
2019-05-22T07:14:17.718Z,13.41
2019-05-22T07:16:44.566Z,13.39
2019-05-22T07:19:12.116Z,13.54
2019-05-22T07:21:38.900Z,13.74
2019-05-22T07:24:06.174Z,13.77
2019-05-22T07:26:33.699Z,13.86
2019-05-22T07:29:04.470Z,13.92
2019-05-22T07:31:29.895Z,13.92
2019-05-22T07:33:56.637Z,13.94
2019-05-22T07:36:23.463Z,14.01
2019-05-22T07:38:52.908Z,14.23
2019-05-22T07:41:19.647Z,14.40
2019-05-22T07:43:48.668Z,14.52
2019-05-22T07:46:15.368Z,14.45
2019-05-22T07:48:42.426Z,14.33
2019-05-22T07:51:09.479Z,14.50
2019-05-22T07:53:36.195Z,14.50
2019-05-22T07:56:06.840Z,14.64
2019-05-22T07:58:34.755Z,14.66
2019-05-22T08:01:02.826Z,14.73
2019-05-22T08:03:31.371Z,14.77
2019-05-22T08:05:58.562Z,14.75
2019-05-22T08:08:25.985Z,14.66
2019-05-22T08:10:53.710Z,14.71
2019-05-22T08:13:20.761Z,14.59
2019-05-22T08:15:48.238Z,14.71
2019-05-22T08:18:15.952Z,14.66
2019-05-22T08:20:42.788Z,14.60
2019-05-22T08:23:11.275Z,14.63
2019-05-22T08:25:38.346Z,14.62
2019-05-22T08:28:05.465Z,14.43
2019-05-22T08:30:32.209Z,14.58
2019-05-22T08:33:00.755Z,14.70
2019-05-22T08:35:30.851Z,14.56
2019-05-22T08:37:58.588Z,14.75
2019-05-22T08:40:25.615Z,14.69
2019-05-22T08:42:52.349Z,14.73
2019-05-22T08:45:20.930Z,14.68
2019-05-22T08:47:48.191Z,14.69
2019-05-22T08:50:17.049Z,14.83
2019-05-22T08:52:44.346Z,14.76
2019-05-22T08:55:11.165Z,14.68
2019-05-22T08:57:39.851Z,14.74
2019-05-22T09:00:08.505Z,14.77
2019-05-22T09:02:35.267Z,14.77
2019-05-22T09:05:02.164Z,14.71
2019-05-22T09:07:29.291Z,14.72
2019-05-22T09:09:56.025Z,14.79
2019-05-22T09:12:22.761Z,14.97
2019-05-22T09:14:50.038Z,15.07
2019-05-22T09:17:17.601Z,15.14
2019-05-22T09:19:47.748Z,15.24
2019-05-22T09:22:14.894Z,15.37
2019-05-22T09:24:42.619Z,15.40
2019-05-22T09:27:10.977Z,15.41
2019-05-22T09:29:37.707Z,15.40
2019-05-22T09:32:06.417Z,15.56
2019-05-22T09:34:36.294Z,15.40
2019-05-22T09:37:06.816Z,15.64
2019-05-22T09:39:33.854Z,15.87
2019-05-22T09:42:00.678Z,15.97
2019-05-22T09:44:27.763Z,15.85
2019-05-22T09:46:54.480Z,15.95
2019-05-22T09:49:23.901Z,16.07
2019-05-22T09:51:50.256Z,16.14
2019-05-22T09:54:17.210Z,15.97
2019-05-22T09:56:44.067Z,15.76
2019-05-22T09:59:11.073Z,15.95
2019-05-22T10:01:37.785Z,16.14
2019-05-22T10:04:04.871Z,16.28
2019-05-22T10:06:31.554Z,16.35
2019-05-22T10:08:58.965Z,16.46
2019-05-22T10:11:26.505Z,16.41
2019-05-22T10:13:55.123Z,16.59
2019-05-22T10:16:21.868Z,16.61
2019-05-22T10:18:52.812Z,16.91
2019-05-22T10:21:17.993Z,16.92
2019-05-22T10:23:44.824Z,16.92
2019-05-22T10:26:11.624Z,16.99
2019-05-22T10:28:39.310Z,17.12
2019-05-22T10:31:08.438Z,17.15
2019-05-22T10:33:37.130Z,17.20
2019-05-22T10:36:04.236Z,17.17
2019-05-22T10:38:31.162Z,17.10
2019-05-22T10:40:59.539Z,17.03
2019-05-22T10:43:26.853Z,17.02
2019-05-22T10:45:53.673Z,16.90
2019-05-22T10:48:20.609Z,17.03
2019-05-22T10:50:47.357Z,17.33
2019-05-22T10:53:30.562Z,17.30
2019-05-22T10:55:43.389Z,17.41
2019-05-22T10:58:10.273Z,17.52
2019-05-22T11:00:37.573Z,17.45
2019-05-22T11:03:04.870Z,17.45
2019-05-22T11:05:31.602Z,17.50
2019-05-22T11:07:59.154Z,17.60
2019-05-22T11:10:26.261Z,17.73
2019-05-22T11:12:53.230Z,17.74
2019-05-22T11:15:20.501Z,17.73
2019-05-22T11:17:48.669Z,17.92
2019-05-22T11:20:15.842Z,18.10
2019-05-22T11:22:43.079Z,18.00
2019-05-22T11:25:12.437Z,18.02
2019-05-22T11:27:39.429Z,18.15
2019-05-22T11:30:06.590Z,18.38
2019-05-22T11:32:33.687Z,18.42
2019-05-22T11:35:00.937Z,18.32
2019-05-22T11:37:28.088Z,18.67
2019-05-22T11:39:55.239Z,19.14
2019-05-22T11:42:22.054Z,19.54
2019-05-22T11:44:49.067Z,19.43
2019-05-22T11:47:16.212Z,19.21
2019-05-22T11:49:42.935Z,18.84
2019-05-22T11:52:11.425Z,18.67
2019-05-22T11:54:38.134Z,18.32
2019-05-22T11:57:04.849Z,18.21
2019-05-22T11:59:32.062Z,18.13
2019-05-22T12:01:59.294Z,18.49
2019-05-22T12:04:26.123Z,18.86
2019-05-22T12:06:54.134Z,19.18
2019-05-22T12:09:23.211Z,19.52
2019-05-22T12:11:49.937Z,19.65
2019-05-22T12:14:17.210Z,20.05
2019-05-22T12:16:44.443Z,19.83
2019-05-22T12:19:11.359Z,19.34
2019-05-22T12:21:38.797Z,19.39
2019-05-22T12:24:07.672Z,19.41
2019-05-22T12:26:35.820Z,19.44
2019-05-22T12:29:02.566Z,19.46
2019-05-22T12:31:29.268Z,19.53
2019-05-22T12:33:56.463Z,20.07
2019-05-22T12:36:23.195Z,20.49
2019-05-22T12:38:49.910Z,20.30
2019-05-22T12:41:17.056Z,20.18
2019-05-22T12:43:45.003Z,20.14
2019-05-22T12:46:12.682Z,20.06
2019-05-22T12:48:40.960Z,20.06
2019-05-22T12:51:09.859Z,20.47
2019-05-22T12:53:36.813Z,20.90
2019-05-22T12:56:03.811Z,21.30
2019-05-22T12:58:31.436Z,21.66
2019-05-22T13:00:58.247Z,22.03
2019-05-22T13:03:27.730Z,22.33
2019-05-22T13:05:54.456Z,22.10
2019-05-22T13:08:21.624Z,21.90
2019-05-22T13:10:48.666Z,22.01
2019-05-22T13:13:15.511Z,22.04
2019-05-22T13:15:42.699Z,21.83
2019-05-22T13:18:09.999Z,22.02
2019-05-22T13:20:43.370Z,22.59
2019-05-22T13:23:08.875Z,23.08
2019-05-22T13:25:36.075Z,23.36
2019-05-22T13:28:03.345Z,23.11
2019-05-22T13:30:31.917Z,23.55
2019-05-22T13:32:58.647Z,23.09
2019-05-22T13:35:25.908Z,23.31
2019-05-22T13:37:53.108Z,23.27
2019-05-22T13:40:27.698Z,22.95
2019-05-22T13:42:49.128Z,23.30
2019-05-22T13:45:28.420Z,23.68
2019-05-22T13:47:44.960Z,23.72
2019-05-22T13:50:12.270Z,23.35
2019-05-22T13:52:39.069Z,23.06
2019-05-22T13:55:06.464Z,22.72
2019-05-22T13:57:33.318Z,22.88
2019-05-22T14:00:00.066Z,22.90
2019-05-22T14:02:27.420Z,23.69
2019-05-22T14:04:54.368Z,23.71
2019-05-22T14:07:21.110Z,22.79
2019-05-22T14:09:47.844Z,22.66
2019-05-22T14:12:16.470Z,22.17
2019-05-22T14:14:43.223Z,22.44
2019-05-22T14:17:09.932Z,22.13
2019-05-22T14:19:36.652Z,22.30
2019-05-22T14:22:03.540Z,22.71
2019-05-22T14:24:30.269Z,23.00
2019-05-22T14:26:57.004Z,23.49
2019-05-22T14:29:23.753Z,23.51
2019-05-22T14:31:52.238Z,23.58
2019-05-22T14:34:19.379Z,23.45
2019-05-22T14:36:46.909Z,23.33
2019-05-22T14:39:14.470Z,23.86
2019-05-22T14:41:41.235Z,23.81
2019-05-22T14:44:07.975Z,23.65
2019-05-22T14:46:34.813Z,23.73
2019-05-22T14:49:04.135Z,24.19
2019-05-22T14:51:31.693Z,24.19
2019-05-22T14:53:58.753Z,24.16
2019-05-22T14:56:25.544Z,24.40
2019-05-22T14:58:53.182Z,24.54
2019-05-22T15:01:20.704Z,23.63
2019-05-22T15:03:47.441Z,22.79
2019-05-22T15:06:14.718Z,22.89
2019-05-22T15:08:41.554Z,23.84
2019-05-22T15:11:09.038Z,24.36
2019-05-22T15:13:35.857Z,24.38
2019-05-22T15:16:02.588Z,24.59
2019-05-22T15:18:32.508Z,24.35
2019-05-22T15:21:00.906Z,24.55
2019-05-22T15:23:28.154Z,24.38
2019-05-22T15:25:55.073Z,24.44
2019-05-22T15:28:21.991Z,24.51
2019-05-22T15:30:49.035Z,24.69
2019-05-22T15:33:15.755Z,25.25
2019-05-22T15:35:42.800Z,25.23
2019-05-22T15:38:10.070Z,24.98
2019-05-22T15:40:37.139Z,24.87
2019-05-22T15:43:05.796Z,24.80
2019-05-22T15:45:34.101Z,24.88
2019-05-22T15:48:03.720Z,24.71
2019-05-22T15:50:31.417Z,24.64
2019-05-22T15:53:04.261Z,24.41
2019-05-22T15:55:32.983Z,24.14
2019-05-22T15:58:00.062Z,24.42
2019-05-22T16:00:28.663Z,24.90
2019-05-22T16:02:55.707Z,25.38
2019-05-22T16:05:22.649Z,25.00
2019-05-22T16:07:49.674Z,25.10
2019-05-22T16:10:16.553Z,25.67
2019-05-22T16:12:47.739Z,25.94
2019-05-22T16:15:16.704Z,26.13
2019-05-22T16:17:43.929Z,25.79
2019-05-22T16:20:11.836Z,25.12
2019-05-22T16:22:39.074Z,25.27
2019-05-22T16:25:07.747Z,25.80
2019-05-22T16:27:34.574Z,26.10
2019-05-22T16:30:01.568Z,25.36
2019-05-22T16:32:28.382Z,25.05
2019-05-22T16:34:55.121Z,24.98
2019-05-22T16:37:22.012Z,25.15
2019-05-22T16:39:50.973Z,24.54
2019-05-22T16:42:17.842Z,24.42
2019-05-22T16:44:44.987Z,24.49
2019-05-22T16:47:11.806Z,24.77
2019-05-22T16:49:38.784Z,24.29
2019-05-22T16:52:06.305Z,24.39
2019-05-22T16:54:33.120Z,24.29
2019-05-22T16:57:00.688Z,24.56
2019-05-22T16:59:28.712Z,24.54
2019-05-22T17:01:59.364Z,24.41
2019-05-22T17:04:24.809Z,24.23
2019-05-22T17:06:51.637Z,24.06
2019-05-22T17:09:20.545Z,24.09
2019-05-22T17:11:47.840Z,23.93
2019-05-22T17:14:14.858Z,23.73
2019-05-22T17:16:42.498Z,23.57
2019-05-22T17:19:25.751Z,23.25
2019-05-22T17:21:38.709Z,23.22
2019-05-22T17:24:09.249Z,23.11
2019-05-22T17:26:36.160Z,22.64
2019-05-22T17:29:02.906Z,22.37
2019-05-22T17:31:30.043Z,22.54
2019-05-22T17:33:57.513Z,22.33
2019-05-22T17:36:24.661Z,22.09
2019-05-22T17:38:52.326Z,22.11
2019-05-22T17:41:20.258Z,22.26
2019-05-22T17:43:47.789Z,22.12
2019-05-22T17:46:16.924Z,21.80
2019-05-22T17:48:44.130Z,21.63
2019-05-22T17:51:11.230Z,21.59
2019-05-22T17:53:37.951Z,21.96
2019-05-22T17:56:04.667Z,21.84
2019-05-22T17:58:31.401Z,21.52
2019-05-22T18:00:59.811Z,21.61
2019-05-22T18:03:26.760Z,21.72
2019-05-22T18:05:54.461Z,21.92
2019-05-22T18:08:21.579Z,21.75
2019-05-22T18:10:49.147Z,21.38
2019-05-22T18:13:16.480Z,21.18
2019-05-22T18:15:43.660Z,21.00
2019-05-22T18:18:10.527Z,20.90
2019-05-22T18:20:43.338Z,20.91
2019-05-22T18:23:06.001Z,20.83
2019-05-22T18:25:32.980Z,20.90
2019-05-22T18:28:00.959Z,20.86
2019-05-22T18:30:28.187Z,20.94
2019-05-22T18:32:55.439Z,20.96
2019-05-22T18:35:22.381Z,20.97
2019-05-22T18:37:49.157Z,20.88
2019-05-22T18:40:16.942Z,20.81
2019-05-22T18:42:44.119Z,20.81
2019-05-22T18:45:13.529Z,20.86
2019-05-22T18:47:40.277Z,20.73
2019-05-22T18:50:07.983Z,20.69
2019-05-22T18:52:41.057Z,20.63
2019-05-22T18:55:03.987Z,20.59
2019-05-22T18:57:31.122Z,20.60
2019-05-22T19:00:02.773Z,20.56
2019-05-22T19:02:26.672Z,20.51
2019-05-22T19:04:53.389Z,20.34
2019-05-22T19:07:20.099Z,20.17
2019-05-22T19:09:46.831Z,20.19
2019-05-22T19:12:15.081Z,20.13
2019-05-22T19:14:41.827Z,20.11
2019-05-22T19:17:09.412Z,20.08
2019-05-22T19:19:36.955Z,20.11
2019-05-22T19:22:03.693Z,19.97
2019-05-22T19:24:30.425Z,19.79
2019-05-22T19:26:57.164Z,19.68
2019-05-22T19:29:23.891Z,19.53
2019-05-22T19:31:50.604Z,19.42
2019-05-22T19:34:17.530Z,19.32
2019-05-22T19:36:44.220Z,19.18
2019-05-22T19:39:10.962Z,19.21
2019-05-22T19:41:38.064Z,19.10
2019-05-22T19:44:05.835Z,18.98
2019-05-22T19:46:33.705Z,18.97
2019-05-22T19:49:00.941Z,18.83
2019-05-22T19:51:27.653Z,18.69
2019-05-22T19:53:55.163Z,18.69
2019-05-22T19:56:24.445Z,18.61
2019-05-22T19:58:51.338Z,18.33
2019-05-22T20:01:18.138Z,18.20
2019-05-22T20:03:45.228Z,18.25
2019-05-22T20:06:11.974Z,18.18
2019-05-22T20:08:39.920Z,17.91
2019-05-22T20:11:06.738Z,17.92
2019-05-22T20:13:33.725Z,17.91
2019-05-22T20:16:00.473Z,17.78
2019-05-22T20:18:27.321Z,17.54
2019-05-22T20:20:54.655Z,17.40
2019-05-22T20:23:34.717Z,17.31
2019-05-22T20:25:50.551Z,17.27
2019-05-22T20:28:17.689Z,17.13
2019-05-22T20:30:47.435Z,17.04
2019-05-22T20:33:14.738Z,17.04
2019-05-22T20:35:41.563Z,17.01
2019-05-22T20:38:08.381Z,17.04
2019-05-22T20:40:35.514Z,16.97
2019-05-22T20:43:03.274Z,16.89
2019-05-22T20:45:31.647Z,16.94
2019-05-22T20:48:21.862Z,16.87
2019-05-22T20:50:49.083Z,16.64
2019-05-22T20:53:16.710Z,16.60
2019-05-22T20:55:44.722Z,16.43
2019-05-22T20:58:13.374Z,16.42
2019-05-22T21:00:40.154Z,16.33
2019-05-22T21:03:07.520Z,16.25
2019-05-22T21:05:35.312Z,16.13
2019-05-22T21:08:05.167Z,15.99
2019-05-22T21:10:31.957Z,15.99
2019-05-22T21:13:00.112Z,16.12
2019-05-22T21:15:28.987Z,16.28
2019-05-22T21:17:57.715Z,16.19
2019-05-22T21:20:25.375Z,15.90
2019-05-22T21:22:55.129Z,15.67
2019-05-22T21:25:22.369Z,15.55
2019-05-22T21:27:51.116Z,15.52
2019-05-22T21:30:19.407Z,15.49
2019-05-22T21:32:46.983Z,15.49
2019-05-22T21:35:15.919Z,15.31
2019-05-22T21:37:43.174Z,15.24
2019-05-22T21:40:10.368Z,15.15
2019-05-22T21:42:38.025Z,15.07
2019-05-22T21:45:06.409Z,15.01
2019-05-22T21:47:33.272Z,15.03
2019-05-22T21:50:00.930Z,15.01
2019-05-22T21:52:28.086Z,15.00
2019-05-22T21:54:54.792Z,15.01
2019-05-22T21:57:21.931Z,14.94
2019-05-22T21:59:49.209Z,14.94
2019-05-22T22:02:22.288Z,14.85
2019-05-22T22:04:49.687Z,14.61
2019-05-22T22:07:16.783Z,14.51
2019-05-22T22:09:47.596Z,14.44
2019-05-22T22:12:14.328Z,14.30
2019-05-22T22:14:42.566Z,14.10
2019-05-22T22:17:11.561Z,13.97
2019-05-22T22:19:38.308Z,14.16
2019-05-22T22:22:06.971Z,14.14
2019-05-22T22:24:37.702Z,14.20
2019-05-22T22:27:04.736Z,14.14
2019-05-22T22:29:31.541Z,13.87
2019-05-22T22:31:59.742Z,13.92
2019-05-22T22:34:40.320Z,13.81
2019-05-22T22:37:08.524Z,13.73
2019-05-22T22:39:36.060Z,13.82
2019-05-22T22:42:03.672Z,13.88
2019-05-22T22:44:31.968Z,13.87
2019-05-22T22:47:03.733Z,13.71
2019-05-22T22:49:31.780Z,13.74
2019-05-22T22:51:58.781Z,13.78
2019-05-22T22:54:25.902Z,13.95
2019-05-22T22:56:52.686Z,13.82
2019-05-22T22:59:20.427Z,13.89
2019-05-22T23:01:48.090Z,13.73
2019-05-22T23:04:17.376Z,13.59
2019-05-22T23:06:44.209Z,13.60
2019-05-22T23:09:12.020Z,13.53
2019-05-22T23:11:40.014Z,13.44
2019-05-22T23:14:07.226Z,13.30
2019-05-22T23:16:33.948Z,13.24
2019-05-22T23:19:33.573Z,13.28
2019-05-22T23:22:00.826Z,13.29
2019-05-22T23:24:29.041Z,13.14
2019-05-22T23:26:59.012Z,13.28
2019-05-22T23:29:26.367Z,13.31
2019-05-22T23:31:55.610Z,13.35
2019-05-22T23:34:23.067Z,13.43
2019-05-22T23:36:50.245Z,13.34
2019-05-22T23:39:18.601Z,13.11
2019-05-22T23:41:45.904Z,13.01
2019-05-22T23:44:13.250Z,13.03
2019-05-22T23:46:40.664Z,12.96
2019-05-22T23:49:09.336Z,12.95
2019-05-22T23:51:36.078Z,12.89
2019-05-22T23:54:02.984Z,12.77
2019-05-22T23:56:30.038Z,12.73
2019-05-22T23:58:57.854Z,12.80
